createdAt,value
2022-08-25T00:00:43.176Z,17.92
2022-08-25T00:01:43.194Z,18.16
2022-08-25T00:02:55.748Z,18.38
2022-08-25T00:03:44.156Z,18.51
2022-08-25T00:04:43.136Z,18.79
2022-08-25T00:05:43.153Z,18.89
2022-08-25T00:06:43.149Z,19.09
2022-08-25T00:07:43.106Z,19.16
2022-08-25T00:08:43.096Z,19.32
2022-08-25T00:09:43.113Z,19.49
2022-08-25T00:10:43.118Z,19.45
2022-08-25T00:11:44.153Z,18.69
2022-08-25T00:12:43.080Z,18.46
2022-08-25T00:13:43.084Z,18.36
2022-08-25T00:14:43.199Z,18.32
2022-08-25T00:15:43.092Z,18.07
2022-08-25T00:16:44.081Z,17.92
2022-08-25T00:17:43.079Z,17.83
2022-08-25T00:18:43.054Z,17.96
2022-08-25T00:19:43.078Z,18.11
2022-08-25T00:20:43.289Z,18.32
2022-08-25T00:21:44.065Z,18.41
2022-08-25T00:22:43.053Z,18.60
2022-08-25T00:23:43.051Z,18.82
2022-08-25T00:24:43.040Z,18.94
2022-08-25T00:25:43.003Z,19.01
2022-08-25T00:26:43.010Z,19.06
2022-08-25T00:27:42.975Z,19.17
2022-08-25T00:28:42.994Z,19.25
2022-08-25T00:29:43.014Z,19.34
2022-08-25T00:30:43.054Z,19.43
2022-08-25T00:31:43.019Z,19.42
2022-08-25T00:32:43.000Z,19.50
2022-08-25T00:33:43.969Z,19.52
2022-08-25T00:34:42.990Z,19.55
2022-08-25T00:35:42.960Z,19.57
2022-08-25T00:36:42.953Z,19.61
2022-08-25T00:37:42.932Z,19.67
2022-08-25T00:38:42.939Z,19.72
2022-08-25T00:39:42.946Z,19.58
2022-08-25T00:40:42.898Z,19.43
2022-08-25T00:41:42.937Z,19.06
2022-08-25T00:42:42.911Z,18.69
2022-08-25T00:43:42.901Z,18.42
2022-08-25T00:44:42.878Z,18.28
2022-08-25T00:45:42.915Z,18.28
2022-08-25T00:46:42.951Z,17.94
2022-08-25T00:47:42.853Z,17.89
2022-08-25T00:48:42.844Z,17.71
2022-08-25T00:49:42.869Z,17.68
2022-08-25T00:50:42.866Z,17.47
2022-08-25T00:51:42.859Z,17.38
2022-08-25T00:52:42.842Z,17.15
2022-08-25T00:53:42.830Z,17.14
2022-08-25T00:54:42.831Z,17.06
2022-08-25T00:55:42.840Z,17.17
2022-08-25T00:56:42.819Z,17.18
2022-08-25T00:57:42.854Z,17.05
2022-08-25T00:58:42.791Z,17.05
2022-08-25T00:59:42.776Z,17.10
2022-08-25T01:00:42.795Z,17.38
2022-08-25T01:01:42.812Z,17.60
2022-08-25T01:02:42.847Z,17.84
2022-08-25T01:03:42.813Z,17.98
2022-08-25T01:04:48.699Z,18.09
2022-08-25T01:05:44.771Z,18.31
2022-08-25T01:06:42.730Z,18.39
2022-08-25T01:07:43.494Z,18.49
2022-08-25T01:08:42.747Z,18.64
2022-08-25T01:09:42.711Z,18.68
2022-08-25T01:10:42.718Z,18.54
2022-08-25T01:11:42.709Z,17.86
2022-08-25T01:12:42.721Z,17.15
2022-08-25T01:13:42.711Z,17.00
2022-08-25T01:14:42.704Z,16.87
2022-08-25T01:15:42.724Z,16.75
2022-08-25T01:16:42.763Z,16.67
2022-08-25T01:17:42.676Z,16.65
2022-08-25T01:18:43.690Z,16.63
2022-08-25T01:19:42.710Z,16.62
2022-08-25T01:20:42.654Z,16.63
2022-08-25T01:21:42.659Z,16.65
2022-08-25T01:22:42.632Z,16.70
2022-08-25T01:23:42.640Z,16.92
2022-08-25T01:24:42.709Z,16.99
2022-08-25T01:25:42.618Z,17.12
2022-08-25T01:26:42.614Z,17.32
2022-08-25T01:27:42.589Z,17.47
2022-08-25T01:28:42.621Z,17.53
2022-08-25T01:29:42.599Z,17.53
2022-08-25T01:30:42.640Z,17.71
2022-08-25T01:31:42.593Z,17.68
2022-08-25T01:32:42.573Z,17.66
2022-08-25T01:33:42.557Z,17.87
2022-08-25T01:34:42.595Z,17.84
2022-08-25T01:35:42.560Z,17.95
2022-08-25T01:36:42.628Z,18.04
2022-08-25T01:37:42.546Z,18.29
2022-08-25T01:38:42.514Z,18.38
2022-08-25T01:39:42.531Z,18.35
2022-08-25T01:40:42.528Z,18.53
2022-08-25T01:41:42.549Z,18.56
2022-08-25T01:42:42.512Z,18.72
2022-08-25T01:43:42.486Z,18.69
2022-08-25T01:44:42.529Z,18.82
2022-08-25T01:45:42.518Z,18.90
2022-08-25T01:46:42.511Z,18.76
2022-08-25T01:47:42.498Z,18.76
2022-08-25T01:48:42.493Z,18.91
2022-08-25T01:49:42.509Z,18.97
2022-08-25T01:50:42.427Z,18.94
2022-08-25T01:51:42.466Z,18.83
2022-08-25T01:52:42.486Z,18.86
2022-08-25T01:53:42.445Z,18.94
2022-08-25T01:54:42.471Z,18.96
2022-08-25T01:55:42.445Z,18.86
2022-08-25T01:56:42.445Z,18.89
2022-08-25T01:57:42.453Z,18.90
2022-08-25T01:58:42.421Z,18.93
2022-08-25T01:59:42.394Z,18.90
2022-08-25T02:00:42.408Z,18.90
2022-08-25T02:01:42.454Z,18.93
2022-08-25T02:02:42.788Z,18.79
2022-08-25T02:03:42.543Z,18.78
2022-08-25T02:04:44.609Z,18.71
2022-08-25T02:05:42.362Z,18.64
2022-08-25T02:06:42.400Z,18.60
2022-08-25T02:07:42.349Z,18.59
2022-08-25T02:08:42.395Z,18.36
2022-08-25T02:09:42.352Z,18.41
2022-08-25T02:10:42.336Z,18.42
2022-08-25T02:11:42.330Z,17.96
2022-08-25T02:12:42.343Z,17.53
2022-08-25T02:13:42.328Z,17.22
2022-08-25T02:14:42.333Z,17.24
2022-08-25T02:15:42.323Z,16.96
2022-08-25T02:16:42.319Z,16.87
2022-08-25T02:17:42.288Z,16.65
2022-08-25T02:18:42.279Z,16.66
2022-08-25T02:19:42.291Z,16.48
2022-08-25T02:20:42.313Z,16.27
2022-08-25T02:21:42.275Z,16.14
2022-08-25T02:22:43.455Z,16.11
2022-08-25T02:23:43.266Z,16.29
2022-08-25T02:24:42.265Z,16.48
2022-08-25T02:25:42.264Z,16.67
2022-08-25T02:26:42.239Z,16.78
2022-08-25T02:27:42.229Z,16.73
2022-08-25T02:28:43.265Z,16.85
2022-08-25T02:29:42.197Z,16.95
2022-08-25T02:30:42.284Z,16.77
2022-08-25T02:31:42.198Z,16.80
2022-08-25T02:32:42.194Z,16.87
2022-08-25T02:33:42.175Z,16.87
2022-08-25T02:34:42.180Z,16.78
2022-08-25T02:35:42.198Z,16.69
2022-08-25T02:36:42.193Z,16.48
2022-08-25T02:37:42.135Z,16.37
2022-08-25T02:38:42.161Z,16.37
2022-08-25T02:39:42.132Z,16.51
2022-08-25T02:40:42.161Z,16.77
2022-08-25T02:41:42.167Z,16.87
2022-08-25T02:42:42.602Z,17.09
2022-08-25T02:43:42.125Z,17.12
2022-08-25T02:44:42.127Z,17.40
2022-08-25T02:45:42.145Z,17.51
2022-08-25T02:46:42.117Z,17.60
2022-08-25T02:47:42.099Z,17.58
2022-08-25T02:48:42.094Z,17.57
2022-08-25T02:49:42.079Z,17.45
2022-08-25T02:50:42.053Z,17.25
2022-08-25T02:51:42.073Z,17.24
2022-08-25T02:52:42.103Z,17.32
2022-08-25T02:53:42.076Z,17.39
2022-08-25T02:54:42.040Z,17.30
2022-08-25T02:55:42.027Z,17.46
2022-08-25T02:56:42.020Z,17.57
2022-08-25T02:57:42.016Z,17.68
2022-08-25T02:58:42.041Z,17.71
2022-08-25T02:59:42.036Z,17.81
2022-08-25T03:00:42.071Z,17.86
2022-08-25T03:01:42.029Z,17.95
2022-08-25T03:02:42.012Z,17.87
2022-08-25T03:03:43.480Z,17.74
2022-08-25T03:04:42.045Z,17.84
2022-08-25T03:05:41.971Z,17.80
2022-08-25T03:06:41.947Z,17.84
2022-08-25T03:07:41.964Z,17.79
2022-08-25T03:08:41.969Z,17.95
2022-08-25T03:09:41.983Z,17.98
2022-08-25T03:10:41.955Z,17.99
2022-08-25T03:11:41.945Z,17.99
2022-08-25T03:12:41.927Z,18.01
2022-08-25T03:13:41.898Z,18.16
2022-08-25T03:14:41.909Z,18.11
2022-08-25T03:15:41.946Z,18.19
2022-08-25T03:16:41.934Z,18.20
2022-08-25T03:17:43.819Z,18.10
2022-08-25T03:18:42.095Z,17.89
2022-08-25T03:19:41.904Z,17.53
2022-08-25T03:20:41.912Z,17.18
2022-08-25T03:21:41.872Z,16.99
2022-08-25T03:22:42.888Z,16.73
2022-08-25T03:23:41.862Z,16.41
2022-08-25T03:24:41.854Z,16.26
2022-08-25T03:25:41.833Z,16.18
2022-08-25T03:26:41.864Z,16.32
2022-08-25T03:27:41.910Z,16.54
2022-08-25T03:28:41.847Z,16.65
2022-08-25T03:29:41.840Z,16.96
2022-08-25T03:30:41.819Z,16.99
2022-08-25T03:31:41.901Z,17.15
2022-08-25T03:32:41.803Z,17.36
2022-08-25T03:33:41.799Z,17.46
2022-08-25T03:34:41.800Z,17.62
2022-08-25T03:35:41.780Z,17.45
2022-08-25T03:36:41.814Z,17.36
2022-08-25T03:37:41.903Z,16.99
2022-08-25T03:38:41.765Z,16.87
2022-08-25T03:39:41.765Z,16.77
2022-08-25T03:40:41.771Z,16.57
2022-08-25T03:41:41.734Z,16.63
2022-08-25T03:42:44.871Z,16.59
2022-08-25T03:43:48.757Z,16.72
2022-08-25T03:44:41.744Z,16.75
2022-08-25T03:45:41.804Z,16.87
2022-08-25T03:46:41.736Z,16.92
2022-08-25T03:47:41.721Z,16.72
2022-08-25T03:48:41.718Z,16.78
2022-08-25T03:49:41.735Z,16.72
2022-08-25T03:50:41.715Z,16.81
2022-08-25T03:51:41.686Z,16.85
2022-08-25T03:52:42.727Z,16.84
2022-08-25T03:53:42.663Z,16.78
2022-08-25T03:54:41.672Z,16.67
2022-08-25T03:55:41.661Z,16.51
2022-08-25T03:56:41.634Z,16.47
2022-08-25T03:57:41.633Z,16.60
2022-08-25T03:58:41.622Z,16.78
2022-08-25T03:59:41.652Z,16.81
2022-08-25T04:00:41.600Z,16.80
2022-08-25T04:01:41.670Z,16.90
2022-08-25T04:02:41.719Z,16.92
2022-08-25T04:03:41.597Z,17.02
2022-08-25T04:04:41.620Z,17.14
2022-08-25T04:05:41.599Z,17.12
2022-08-25T04:06:41.607Z,17.22
2022-08-25T04:07:41.655Z,17.42
2022-08-25T04:08:41.654Z,17.43
2022-08-25T04:09:41.609Z,17.51
2022-08-25T04:10:41.562Z,17.58
2022-08-25T04:11:42.707Z,17.60
2022-08-25T04:12:41.559Z,17.63
2022-08-25T04:13:41.551Z,17.84
2022-08-25T04:14:41.532Z,17.86
2022-08-25T04:15:41.545Z,17.77
2022-08-25T04:16:41.551Z,17.89
2022-08-25T04:17:41.564Z,17.95
2022-08-25T04:18:41.545Z,17.89
2022-08-25T04:19:41.509Z,17.94
2022-08-25T04:20:46.401Z,17.87
2022-08-25T04:21:43.526Z,17.86
2022-08-25T04:22:41.506Z,17.94
2022-08-25T04:23:41.486Z,17.95
2022-08-25T04:24:41.511Z,17.96
2022-08-25T04:25:41.496Z,17.96
2022-08-25T04:26:41.471Z,17.83
2022-08-25T04:27:41.430Z,17.92
2022-08-25T04:28:41.442Z,17.65
2022-08-25T04:29:41.440Z,17.55
2022-08-25T04:30:41.434Z,17.21
2022-08-25T04:31:41.634Z,17.00
2022-08-25T04:32:41.480Z,16.98
2022-08-25T04:33:41.404Z,16.95
2022-08-25T04:34:41.447Z,16.96
2022-08-25T04:35:41.415Z,17.06
2022-08-25T04:36:41.425Z,17.20
2022-08-25T04:37:41.437Z,17.15
2022-08-25T04:38:41.442Z,17.36
2022-08-25T04:39:41.391Z,17.32
2022-08-25T04:40:41.379Z,17.45
2022-08-25T04:41:41.424Z,17.28
2022-08-25T04:42:41.336Z,17.24
2022-08-25T04:43:41.329Z,17.32
2022-08-25T04:44:41.366Z,17.35
2022-08-25T04:45:41.457Z,17.47
2022-08-25T04:46:41.502Z,17.55
2022-08-25T04:47:41.328Z,17.58
2022-08-25T04:48:41.319Z,17.53
2022-08-25T04:49:41.440Z,17.62
2022-08-25T04:50:41.299Z,17.60
2022-08-25T04:51:41.287Z,17.74
2022-08-25T04:52:41.279Z,17.95
2022-08-25T04:53:41.332Z,18.05
2022-08-25T04:54:41.313Z,18.19
2022-08-25T04:55:41.272Z,18.51
2022-08-25T04:56:41.268Z,18.60
2022-08-25T04:57:41.342Z,18.87
2022-08-25T04:58:41.305Z,19.20
2022-08-25T04:59:41.308Z,19.52
2022-08-25T05:00:41.308Z,19.76
2022-08-25T05:01:41.288Z,20.10
2022-08-25T05:02:41.232Z,20.31
2022-08-25T05:03:41.302Z,20.63
2022-08-25T05:04:41.277Z,21.00
2022-08-25T05:05:41.269Z,21.28
2022-08-25T05:06:41.219Z,21.42
2022-08-25T05:07:41.205Z,21.71
2022-08-25T05:08:41.357Z,21.81
2022-08-25T05:09:41.189Z,21.85
2022-08-25T05:10:41.180Z,22.01
2022-08-25T05:11:41.197Z,22.12
2022-08-25T05:12:41.202Z,22.14
2022-08-25T05:13:41.149Z,22.35
2022-08-25T05:14:41.182Z,22.48
2022-08-25T05:15:41.139Z,22.66
2022-08-25T05:16:41.174Z,22.75
2022-08-25T05:17:41.184Z,22.75
2022-08-25T05:18:41.115Z,22.82
2022-08-25T05:19:41.120Z,23.03
2022-08-25T05:20:41.095Z,23.18
2022-08-25T05:21:41.099Z,23.29
2022-08-25T05:22:41.147Z,23.47
2022-08-25T05:23:41.099Z,23.53
2022-08-25T05:24:42.080Z,23.60
2022-08-25T05:25:41.059Z,23.63
2022-08-25T05:26:41.148Z,23.63
2022-08-25T05:27:41.054Z,23.74
2022-08-25T05:28:41.204Z,23.89
2022-08-25T05:29:41.012Z,24.05
2022-08-25T05:30:41.069Z,24.23
2022-08-25T05:31:43.944Z,24.24
2022-08-25T05:32:43.027Z,24.21
2022-08-25T05:33:41.027Z,24.14
2022-08-25T05:34:41.030Z,24.11
2022-08-25T05:35:41.042Z,24.21
2022-08-25T05:36:41.046Z,24.29
2022-08-25T05:37:40.985Z,24.14
2022-08-25T05:38:41.064Z,24.24
2022-08-25T05:39:41.003Z,24.06
2022-08-25T05:40:40.984Z,24.06
2022-08-25T05:41:41.007Z,24.09
2022-08-25T05:42:40.983Z,23.79
2022-08-25T05:43:40.951Z,23.81
2022-08-25T05:44:41.007Z,23.74
2022-08-25T05:45:41.023Z,23.81
2022-08-25T05:46:41.032Z,23.68
2022-08-25T05:47:40.899Z,23.81
2022-08-25T05:48:40.936Z,23.71
2022-08-25T05:49:40.941Z,23.78
2022-08-25T05:50:40.924Z,23.71
2022-08-25T05:51:40.931Z,23.64
2022-08-25T05:52:40.970Z,23.62
2022-08-25T05:53:40.942Z,23.64
2022-08-25T05:54:40.895Z,23.68
2022-08-25T05:55:41.081Z,23.63
2022-08-25T05:56:40.888Z,23.81
2022-08-25T05:57:40.841Z,23.71
2022-08-25T05:58:40.911Z,23.72
2022-08-25T05:59:40.854Z,23.74
2022-08-25T06:00:40.863Z,23.79
2022-08-25T06:01:40.863Z,23.59
2022-08-25T06:02:40.812Z,23.44
2022-08-25T06:03:40.855Z,23.22
2022-08-25T06:04:41.349Z,23.23
2022-08-25T06:05:41.794Z,22.99
2022-08-25T06:06:40.817Z,23.06
2022-08-25T06:07:40.780Z,23.04
2022-08-25T06:08:40.765Z,23.14
2022-08-25T06:09:40.805Z,23.01
2022-08-25T06:10:40.785Z,23.18
2022-08-25T06:11:40.764Z,23.19
2022-08-25T06:12:40.813Z,23.25
2022-08-25T06:13:40.748Z,23.31
2022-08-25T06:14:40.772Z,23.23
2022-08-25T06:15:40.717Z,23.26
2022-08-25T06:16:40.796Z,23.26
2022-08-25T06:17:40.750Z,23.18
2022-08-25T06:18:41.749Z,23.18
2022-08-25T06:19:41.275Z,22.75
2022-08-25T06:20:40.705Z,22.42
2022-08-25T06:21:40.684Z,22.39
2022-08-25T06:22:40.722Z,22.33
2022-08-25T06:23:40.687Z,22.21
2022-08-25T06:24:40.667Z,21.83
2022-08-25T06:25:40.693Z,21.64
2022-08-25T06:26:41.676Z,21.67
2022-08-25T06:27:40.696Z,21.73
2022-08-25T06:28:40.662Z,21.93
2022-08-25T06:29:40.675Z,21.93
2022-08-25T06:30:40.665Z,22.05
2022-08-25T06:31:40.699Z,22.08
2022-08-25T06:32:40.597Z,22.21
2022-08-25T06:33:40.602Z,22.15
2022-08-25T06:34:40.602Z,22.15
2022-08-25T06:35:40.738Z,22.09
2022-08-25T06:36:40.677Z,22.04
2022-08-25T06:37:40.608Z,22.04
2022-08-25T06:38:40.602Z,22.12
2022-08-25T06:39:40.617Z,22.15
2022-08-25T06:40:40.576Z,22.20
2022-08-25T06:41:40.585Z,22.24
2022-08-25T06:42:40.587Z,22.38
2022-08-25T06:43:44.958Z,22.33
2022-08-25T06:44:42.528Z,22.39
2022-08-25T06:45:40.528Z,22.36
2022-08-25T06:46:40.571Z,22.27
2022-08-25T06:47:40.553Z,22.20
2022-08-25T06:48:40.537Z,22.29
2022-08-25T06:49:40.515Z,22.31
2022-08-25T06:50:40.476Z,22.45
2022-08-25T06:51:40.529Z,22.36
2022-08-25T06:52:40.495Z,22.38
2022-08-25T06:53:40.500Z,22.57
2022-08-25T06:54:40.502Z,22.52
2022-08-25T06:55:40.488Z,22.74
2022-08-25T06:56:41.455Z,22.81
2022-08-25T06:57:40.438Z,22.84
2022-08-25T06:58:40.422Z,22.79
2022-08-25T06:59:41.578Z,22.88
2022-08-25T07:00:40.478Z,23.07
2022-08-25T07:01:40.527Z,23.07
2022-08-25T07:02:40.508Z,23.18
2022-08-25T07:03:40.390Z,23.22
2022-08-25T07:04:40.445Z,23.34
2022-08-25T07:05:43.720Z,23.59
2022-08-25T07:06:41.374Z,23.56
2022-08-25T07:07:43.578Z,23.79
2022-08-25T07:08:40.371Z,23.92
2022-08-25T07:09:40.380Z,24.11
2022-08-25T07:10:40.363Z,24.02
2022-08-25T07:11:40.343Z,24.09
2022-08-25T07:12:40.334Z,23.92
2022-08-25T07:13:40.319Z,24.11
2022-08-25T07:14:40.326Z,24.15
2022-08-25T07:15:41.352Z,24.30
2022-08-25T07:16:40.406Z,24.36
2022-08-25T07:17:40.326Z,24.29
2022-08-25T07:18:40.327Z,24.06
2022-08-25T07:19:40.951Z,24.02
2022-08-25T07:20:40.342Z,23.89
2022-08-25T07:21:40.290Z,24.11
2022-08-25T07:22:40.307Z,24.14
2022-08-25T07:23:40.269Z,24.15
2022-08-25T07:24:40.236Z,24.18
2022-08-25T07:25:40.315Z,23.94
2022-08-25T07:26:40.241Z,23.78
2022-08-25T07:27:41.120Z,23.57
2022-08-25T07:28:40.273Z,23.34
2022-08-25T07:29:42.639Z,23.50
2022-08-25T07:30:40.226Z,23.63
2022-08-25T07:31:40.242Z,23.64
2022-08-25T07:32:41.947Z,23.77
2022-08-25T07:33:40.225Z,23.87
2022-08-25T07:34:40.194Z,24.05
2022-08-25T07:35:40.235Z,24.15
2022-08-25T07:36:40.178Z,24.41
2022-08-25T07:37:48.853Z,24.26
2022-08-25T07:38:42.188Z,24.06
2022-08-25T07:39:40.156Z,24.21
2022-08-25T07:40:42.982Z,24.31
2022-08-25T07:41:40.121Z,24.16
2022-08-25T07:42:40.150Z,24.11
2022-08-25T07:43:40.153Z,24.16
2022-08-25T07:44:40.110Z,24.29
2022-08-25T07:45:49.025Z,24.21
2022-08-25T07:46:41.126Z,24.37
2022-08-25T07:47:40.099Z,24.63
2022-08-25T07:48:40.091Z,24.53
2022-08-25T07:49:40.104Z,24.59
2022-08-25T07:50:40.140Z,24.67
2022-08-25T07:51:40.080Z,24.71
2022-08-25T07:52:41.112Z,24.87
2022-08-25T07:53:40.075Z,24.90
2022-08-25T07:54:40.055Z,24.94
2022-08-25T07:55:40.073Z,25.08
2022-08-25T07:56:40.074Z,25.14
2022-08-25T07:57:40.082Z,25.11
2022-08-25T07:58:40.128Z,25.22
2022-08-25T07:59:40.427Z,25.11
2022-08-25T08:00:40.058Z,24.93
2022-08-25T08:01:40.149Z,24.37
2022-08-25T08:02:40.025Z,24.26
2022-08-25T08:03:50.354Z,24.55
2022-08-25T08:04:42.016Z,24.75
2022-08-25T08:05:40.009Z,25.01
2022-08-25T08:06:39.975Z,25.16
2022-08-25T08:07:43.311Z,25.31
2022-08-25T08:08:39.960Z,25.48
2022-08-25T08:09:39.952Z,25.54
2022-08-25T08:11:03.232Z,25.69
2022-08-25T08:11:45.594Z,25.74
2022-08-25T08:12:42.009Z,25.63
2022-08-25T08:13:41.512Z,25.89
2022-08-25T08:14:45.085Z,25.75
2022-08-25T08:15:40.966Z,25.85
2022-08-25T08:16:39.992Z,25.97
2022-08-25T08:17:39.916Z,26.08
2022-08-25T08:18:39.874Z,26.04
2022-08-25T08:19:43.091Z,25.83
2022-08-25T08:20:43.120Z,25.91
2022-08-25T08:21:39.845Z,25.66
2022-08-25T08:22:40.890Z,25.75
2022-08-25T08:23:39.863Z,25.94
2022-08-25T08:24:44.891Z,26.21
2022-08-25T08:25:41.882Z,26.51
2022-08-25T08:26:57.568Z,26.64
2022-08-25T08:27:41.848Z,26.57
2022-08-25T08:28:39.869Z,26.34
2022-08-25T08:29:39.801Z,25.94
2022-08-25T08:30:39.815Z,25.82
2022-08-25T08:31:40.898Z,26.16
2022-08-25T08:33:08.076Z,26.32
2022-08-25T08:33:41.783Z,26.57
2022-08-25T08:34:39.779Z,26.61
2022-08-25T08:35:39.796Z,26.73
2022-08-25T08:36:39.797Z,26.76
2022-08-25T08:37:39.777Z,26.21
2022-08-25T08:38:40.521Z,26.19
2022-08-25T08:39:39.794Z,26.51
2022-08-25T08:40:39.798Z,26.47
2022-08-25T08:42:00.663Z,26.04
2022-08-25T08:42:42.030Z,26.09
2022-08-25T08:43:39.723Z,26.50
2022-08-25T08:44:39.737Z,26.87
2022-08-25T08:45:40.491Z,27.09
2022-08-25T08:46:39.767Z,27.46
2022-08-25T08:47:39.705Z,27.63
2022-08-25T08:48:39.764Z,27.74
2022-08-25T08:49:39.715Z,27.76
2022-08-25T08:50:39.756Z,27.87
2022-08-25T08:51:39.666Z,27.90
2022-08-25T08:52:39.638Z,27.98
2022-08-25T08:53:39.679Z,27.72
2022-08-25T08:54:41.268Z,27.87
2022-08-25T08:55:39.654Z,27.98
2022-08-25T08:56:39.668Z,28.23
2022-08-25T08:57:40.677Z,27.45
2022-08-25T08:58:39.660Z,26.83
2022-08-25T08:59:39.653Z,26.72
2022-08-25T09:00:39.684Z,26.88
2022-08-25T09:01:39.663Z,27.15
2022-08-25T09:02:51.351Z,27.05
2022-08-25T09:03:41.646Z,27.02
2022-08-25T09:04:39.582Z,27.01
2022-08-25T09:05:43.784Z,27.02
2022-08-25T09:06:41.642Z,27.46
2022-08-25T09:07:39.626Z,27.86
2022-08-25T09:08:39.606Z,27.95
2022-08-25T09:09:40.594Z,27.83
2022-08-25T09:10:39.609Z,27.03
2022-08-25T09:11:39.552Z,26.93
2022-08-25T09:12:39.590Z,27.31
2022-08-25T09:13:39.538Z,27.63
2022-08-25T09:14:39.557Z,27.62
2022-08-25T09:15:41.052Z,27.30
2022-08-25T09:16:39.613Z,27.40
2022-08-25T09:17:39.548Z,27.46
2022-08-25T09:18:41.055Z,27.08
2022-08-25T09:19:41.829Z,27.12
2022-08-25T09:20:39.504Z,26.69
2022-08-25T09:21:39.487Z,26.57
2022-08-25T09:22:39.495Z,26.83
2022-08-25T09:23:39.485Z,27.40
2022-08-25T09:24:39.494Z,27.50
2022-08-25T09:25:53.177Z,27.66
2022-08-25T09:26:41.439Z,27.61
2022-08-25T09:27:39.456Z,27.71
2022-08-25T09:28:39.493Z,27.81
2022-08-25T09:29:39.431Z,27.77
2022-08-25T09:30:39.466Z,27.45
2022-08-25T09:31:39.463Z,27.55
2022-08-25T09:32:39.421Z,27.65
2022-08-25T09:33:39.451Z,27.80
2022-08-25T09:34:39.400Z,27.99
2022-08-25T09:35:39.409Z,28.11
2022-08-25T09:36:39.391Z,27.78
2022-08-25T09:37:39.405Z,27.20
2022-08-25T09:38:39.477Z,27.21
2022-08-25T09:39:39.408Z,27.38
2022-08-25T09:40:39.453Z,27.66
2022-08-25T09:41:39.406Z,27.84
2022-08-25T09:42:39.355Z,28.21
2022-08-25T09:43:39.381Z,28.55
2022-08-25T09:44:39.441Z,28.79
2022-08-25T09:45:39.388Z,28.76
2022-08-25T09:46:39.467Z,27.83
2022-08-25T09:47:40.390Z,27.93
2022-08-25T09:48:40.779Z,27.87
2022-08-25T09:49:40.349Z,27.81
2022-08-25T09:50:41.823Z,28.01
2022-08-25T09:51:42.917Z,28.24
2022-08-25T09:52:41.340Z,27.90
2022-08-25T09:53:39.313Z,27.52
2022-08-25T09:54:44.045Z,27.42
2022-08-25T09:55:40.343Z,27.25
2022-08-25T09:56:39.329Z,27.09
2022-08-25T09:57:39.311Z,26.98
2022-08-25T09:58:39.285Z,27.11
2022-08-25T09:59:39.421Z,27.12
2022-08-25T10:00:40.277Z,27.18
2022-08-25T10:01:39.315Z,27.03
2022-08-25T10:02:39.269Z,26.86
2022-08-25T10:03:39.216Z,26.96
2022-08-25T10:04:40.088Z,27.18
2022-08-25T10:05:39.248Z,27.39
2022-08-25T10:06:39.215Z,27.43
2022-08-25T10:07:39.219Z,27.68
2022-08-25T10:08:39.504Z,27.69
2022-08-25T10:09:39.199Z,27.34
2022-08-25T10:10:41.940Z,27.40
2022-08-25T10:11:39.221Z,27.61
2022-08-25T10:12:42.512Z,27.80
2022-08-25T10:13:40.200Z,28.13
2022-08-25T10:14:39.200Z,28.30
2022-08-25T10:15:40.190Z,27.87
2022-08-25T10:16:39.200Z,27.78
2022-08-25T10:17:39.159Z,28.03
2022-08-25T10:18:39.180Z,28.33
2022-08-25T10:19:39.171Z,28.55
2022-08-25T10:20:44.575Z,28.85
2022-08-25T10:21:40.254Z,29.10
2022-08-25T10:22:39.145Z,29.11
2022-08-25T10:23:39.162Z,28.88
2022-08-25T10:24:39.098Z,28.73
2022-08-25T10:25:39.841Z,28.05
2022-08-25T10:26:39.134Z,27.40
2022-08-25T10:27:39.129Z,27.01
2022-08-25T10:28:39.065Z,27.31
2022-08-25T10:29:40.979Z,27.46
2022-08-25T10:30:39.166Z,27.84
2022-08-25T10:31:41.295Z,28.35
2022-08-25T10:32:39.099Z,28.91
2022-08-25T10:33:39.307Z,29.27
2022-08-25T10:34:39.066Z,29.52
2022-08-25T10:35:40.110Z,29.88
2022-08-25T10:36:39.036Z,30.28
2022-08-25T10:37:39.066Z,30.48
2022-08-25T10:38:39.070Z,30.54
2022-08-25T10:39:40.622Z,30.67
2022-08-25T10:40:39.080Z,30.76
2022-08-25T10:41:39.015Z,30.85
2022-08-25T10:42:39.027Z,29.89
2022-08-25T10:43:38.997Z,29.79
2022-08-25T10:44:38.978Z,29.25
2022-08-25T10:45:39.056Z,28.92
2022-08-25T10:46:39.050Z,28.54
2022-08-25T10:47:38.987Z,28.39
2022-08-25T10:48:39.101Z,28.18
2022-08-25T10:49:39.009Z,28.11
2022-08-25T10:50:39.078Z,28.02
2022-08-25T10:51:40.023Z,28.21
2022-08-25T10:52:38.995Z,28.17
2022-08-25T10:53:38.927Z,28.18
2022-08-25T10:54:38.950Z,28.39
2022-08-25T10:55:40.283Z,28.80
2022-08-25T10:56:40.737Z,28.85
2022-08-25T10:57:38.936Z,28.51
2022-08-25T10:58:38.933Z,28.92
2022-08-25T10:59:38.894Z,29.45
2022-08-25T11:00:40.354Z,29.42
2022-08-25T11:01:44.038Z,28.73
2022-08-25T11:02:41.541Z,28.58
2022-08-25T11:03:39.910Z,28.52
2022-08-25T11:04:38.973Z,28.33
2022-08-25T11:05:38.903Z,28.36
2022-08-25T11:06:38.843Z,28.27
2022-08-25T11:07:38.813Z,28.24
2022-08-25T11:08:38.821Z,28.17
2022-08-25T11:09:38.839Z,28.25
2022-08-25T11:10:38.808Z,27.99
2022-08-25T11:11:38.935Z,28.32
2022-08-25T11:12:38.941Z,28.45
2022-08-25T11:13:38.837Z,28.73
2022-08-25T11:14:38.786Z,28.72
2022-08-25T11:15:41.450Z,28.83
2022-08-25T11:16:39.858Z,28.97
2022-08-25T11:17:38.796Z,29.03
2022-08-25T11:18:38.771Z,29.26
2022-08-25T11:19:38.783Z,29.45
2022-08-25T11:20:38.796Z,29.54
2022-08-25T11:21:38.751Z,29.73
2022-08-25T11:22:38.793Z,29.67
2022-08-25T11:23:39.646Z,29.58
2022-08-25T11:24:38.912Z,29.57
2022-08-25T11:25:38.723Z,29.42
2022-08-25T11:26:38.751Z,29.08
2022-08-25T11:27:38.798Z,28.76
2022-08-25T11:28:38.740Z,28.61
2022-08-25T11:29:39.547Z,28.82
2022-08-25T11:30:38.858Z,28.94
2022-08-25T11:31:38.709Z,29.15
2022-08-25T11:32:38.671Z,29.23
2022-08-25T11:33:38.701Z,29.37
2022-08-25T11:34:43.557Z,29.18
2022-08-25T11:35:39.705Z,28.92
2022-08-25T11:36:38.671Z,28.42
2022-08-25T11:37:38.664Z,28.52
2022-08-25T11:38:38.636Z,28.83
2022-08-25T11:39:38.674Z,28.76
2022-08-25T11:40:38.668Z,28.77
2022-08-25T11:41:38.629Z,28.65
2022-08-25T11:42:38.594Z,28.88
2022-08-25T11:43:40.576Z,29.08
2022-08-25T11:44:38.602Z,29.23
2022-08-25T11:45:38.638Z,28.79
2022-08-25T11:46:38.635Z,29.15
2022-08-25T11:47:38.572Z,29.39
2022-08-25T11:48:38.574Z,29.55
2022-08-25T11:49:38.577Z,29.41
2022-08-25T11:50:38.588Z,29.26
2022-08-25T11:51:38.727Z,29.00
2022-08-25T11:52:38.571Z,29.35
2022-08-25T11:53:38.583Z,29.29
2022-08-25T11:54:38.539Z,28.85
2022-08-25T11:55:38.577Z,28.55
2022-08-25T11:56:40.080Z,28.60
2022-08-25T11:57:38.536Z,28.27
2022-08-25T11:58:39.078Z,28.30
2022-08-25T11:59:38.517Z,28.61
2022-08-25T12:00:38.490Z,28.80
2022-08-25T12:01:38.489Z,28.77
2022-08-25T12:02:38.514Z,28.65
2022-08-25T12:03:38.501Z,28.73
2022-08-25T12:04:44.932Z,28.55
2022-08-25T12:05:39.550Z,28.38
2022-08-25T12:06:38.536Z,28.33
2022-08-25T12:07:38.527Z,28.23
2022-08-25T12:08:38.460Z,28.20
2022-08-25T12:09:38.445Z,28.28
2022-08-25T12:10:38.507Z,28.38
2022-08-25T12:11:38.473Z,28.54
2022-08-25T12:12:38.419Z,28.50
2022-08-25T12:13:38.480Z,28.27
2022-08-25T12:14:38.398Z,28.39
2022-08-25T12:15:38.423Z,28.48
2022-08-25T12:16:38.444Z,28.35
2022-08-25T12:17:38.444Z,28.35
2022-08-25T12:18:38.454Z,28.32
2022-08-25T12:19:39.374Z,28.24
2022-08-25T12:20:38.410Z,28.21
2022-08-25T12:21:38.367Z,28.23
2022-08-25T12:22:38.420Z,28.18
2022-08-25T12:23:38.348Z,28.40
2022-08-25T12:24:39.372Z,28.35
2022-08-25T12:25:39.356Z,28.33
2022-08-25T12:26:39.543Z,28.35
2022-08-25T12:27:38.421Z,28.46
2022-08-25T12:28:39.093Z,28.62
2022-08-25T12:29:38.403Z,28.85
2022-08-25T12:30:38.391Z,28.92
2022-08-25T12:31:38.301Z,29.18
2022-08-25T12:32:38.304Z,29.39
2022-08-25T12:33:38.307Z,29.60
2022-08-25T12:34:38.272Z,29.47
2022-08-25T12:35:38.327Z,29.42
2022-08-25T12:36:38.279Z,29.29
2022-08-25T12:37:38.414Z,29.29
2022-08-25T12:38:42.572Z,29.48
2022-08-25T12:39:40.271Z,29.76
2022-08-25T12:40:38.266Z,29.92
2022-08-25T12:41:39.240Z,30.21
2022-08-25T12:42:38.231Z,30.22
2022-08-25T12:43:38.297Z,30.08
2022-08-25T12:44:38.258Z,30.13
2022-08-25T12:45:38.252Z,30.08
2022-08-25T12:46:38.220Z,30.18
2022-08-25T12:47:41.839Z,30.37
2022-08-25T12:48:39.222Z,30.45
2022-08-25T12:49:38.239Z,30.29
2022-08-25T12:50:38.223Z,30.22
2022-08-25T12:51:38.238Z,29.81
2022-08-25T12:52:38.167Z,29.37